sensor_id;sensor_type;location;lat;lon;timestamp;pressure;altitude;pressure_sealevel;temperature;humidity
51999;BME280;38015;50.924;11.598;2023-02-15T00:00:11;100882.96;;;22.24;26.06
51999;BME280;38015;50.924;11.598;2023-02-15T00:02:41;100880.93;;;21.99;26.47
51999;BME280;38015;50.924;11.598;2023-02-15T00:05:12;100879.26;;;22.15;26.20
51999;BME280;38015;50.924;11.598;2023-02-15T00:07:42;100877.11;;;22.22;26.08
51999;BME280;38015;50.924;11.598;2023-02-15T00:10:12;100878.31;;;22.29;25.95
51999;BME280;38015;50.924;11.598;2023-02-15T00:12:43;100875.38;;;22.29;25.94
51999;BME280;38015;50.924;11.598;2023-02-15T00:15:13;100874.35;;;22.25;26.05
51999;BME280;38015;50.924;11.598;2023-02-15T00:17:43;100873.66;;;22.27;25.97
51999;BME280;38015;50.924;11.598;2023-02-15T00:20:13;100870.44;;;22.20;26.06
51999;BME280;38015;50.924;11.598;2023-02-15T00:22:44;100868.09;;;22.22;26.06
51999;BME280;38015;50.924;11.598;2023-02-15T00:25:14;100866.60;;;22.20;26.06
51999;BME280;38015;50.924;11.598;2023-02-15T00:27:44;100867.00;;;22.24;25.99
51999;BME280;38015;50.924;11.598;2023-02-15T00:30:15;100869.26;;;22.18;26.10
51999;BME280;38015;50.924;11.598;2023-02-15T00:32:47;100872.70;;;22.25;25.98
51999;BME280;38015;50.924;11.598;2023-02-15T00:35:16;100869.49;;;22.13;26.11
51999;BME280;38015;50.924;11.598;2023-02-15T00:37:46;100870.70;;;22.22;26.01
51999;BME280;38015;50.924;11.598;2023-02-15T00:40:17;100872.88;;;22.18;26.03
51999;BME280;38015;50.924;11.598;2023-02-15T00:42:47;100874.35;;;22.10;26.17
51999;BME280;38015;50.924;11.598;2023-02-15T00:45:17;100876.62;;;22.17;26.04
51999;BME280;38015;50.924;11.598;2023-02-15T00:47:48;100875.57;;;22.27;25.86
51999;BME280;38015;50.924;11.598;2023-02-15T00:50:18;100874.99;;;22.21;26.00
51999;BME280;38015;50.924;11.598;2023-02-15T00:52:49;100875.65;;;22.22;25.92
51999;BME280;38015;50.924;11.598;2023-02-15T00:55:19;100871.87;;;22.24;25.89
51999;BME280;38015;50.924;11.598;2023-02-15T00:57:50;100867.89;;;22.26;25.85
51999;BME280;38015;50.924;11.598;2023-02-15T01:00:20;100865.09;;;22.12;26.08
51999;BME280;38015;50.924;11.598;2023-02-15T01:02:50;100865.20;;;22.21;25.93
51999;BME280;38015;50.924;11.598;2023-02-15T01:05:21;100866.73;;;22.19;25.91
51999;BME280;38015;50.924;11.598;2023-02-15T01:07:51;100869.29;;;22.21;25.88
51999;BME280;38015;50.924;11.598;2023-02-15T01:10:22;100868.82;;;22.14;26.00
51999;BME280;38015;50.924;11.598;2023-02-15T01:12:53;100868.82;;;22.06;26.15
51999;BME280;38015;50.924;11.598;2023-02-15T01:15:23;100869.48;;;22.21;25.86
51999;BME280;38015;50.924;11.598;2023-02-15T01:17:53;100866.99;;;22.05;26.08
51999;BME280;38015;50.924;11.598;2023-02-15T01:20:27;100866.12;;;22.15;25.96
51999;BME280;38015;50.924;11.598;2023-02-15T01:22:54;100865.67;;;22.11;26.01
51999;BME280;38015;50.924;11.598;2023-02-15T01:25:25;100860.93;;;22.18;25.88
51999;BME280;38015;50.924;11.598;2023-02-15T01:27:56;100856.79;;;22.10;26.00
51999;BME280;38015;50.924;11.598;2023-02-15T01:30:26;100856.01;;;22.17;25.83
51999;BME280;38015;50.924;11.598;2023-02-15T01:32:56;100852.46;;;22.22;25.77
51999;BME280;38015;50.924;11.598;2023-02-15T01:35:27;100845.27;;;22.22;25.77
51999;BME280;38015;50.924;11.598;2023-02-15T01:37:57;100842.79;;;22.25;25.72
51999;BME280;38015;50.924;11.598;2023-02-15T01:40:29;100838.90;;;22.24;25.71
51999;BME280;38015;50.924;11.598;2023-02-15T01:42:58;100834.39;;;22.13;25.87
51999;BME280;38015;50.924;11.598;2023-02-15T01:45:30;100831.89;;;22.10;25.94
51999;BME280;38015;50.924;11.598;2023-02-15T01:48:03;100830.07;;;22.15;25.84
51999;BME280;38015;50.924;11.598;2023-02-15T01:50:31;100829.10;;;22.09;25.95
51999;BME280;38015;50.924;11.598;2023-02-15T01:53:06;100824.95;;;22.14;25.85
51999;BME280;38015;50.924;11.598;2023-02-15T01:55:35;100822.93;;;22.11;25.84
51999;BME280;38015;50.924;11.598;2023-02-15T01:58:02;100821.03;;;22.22;25.69
51999;BME280;38015;50.924;11.598;2023-02-15T02:00:32;100815.49;;;22.24;25.66
51999;BME280;38015;50.924;11.598;2023-02-15T02:03:03;100813.85;;;22.20;25.71
51999;BME280;38015;50.924;11.598;2023-02-15T02:05:32;100812.31;;;22.12;25.84
51999;BME280;38015;50.924;11.598;2023-02-15T02:08:03;100809.71;;;22.19;25.69
51999;BME280;38015;50.924;11.598;2023-02-15T02:10:32;100809.67;;;22.18;25.68
51999;BME280;38015;50.924;11.598;2023-02-15T02:13:04;100811.61;;;22.17;25.69
51999;BME280;38015;50.924;11.598;2023-02-15T02:15:39;100811.90;;;22.17;25.67
51999;BME280;38015;50.924;11.598;2023-02-15T02:18:15;100816.02;;;22.21;25.60
51999;BME280;38015;50.924;11.598;2023-02-15T02:23:16;100814.57;;;22.15;25.68
51999;BME280;38015;50.924;11.598;2023-02-15T02:25:51;100812.96;;;22.23;25.54
51999;BME280;38015;50.924;11.598;2023-02-15T02:28:17;100810.18;;;22.23;25.53
51999;BME280;38015;50.924;11.598;2023-02-15T02:30:48;100808.10;;;22.27;25.49
51999;BME280;38015;50.924;11.598;2023-02-15T02:33:18;100801.52;;;22.23;25.55
51999;BME280;38015;50.924;11.598;2023-02-15T02:35:44;100797.30;;;22.17;25.62
51999;BME280;38015;50.924;11.598;2023-02-15T02:38:15;100793.17;;;22.17;25.60
51999;BME280;38015;50.924;11.598;2023-02-15T02:40:48;100787.02;;;22.17;25.58
51999;BME280;38015;50.924;11.598;2023-02-15T02:43:15;100787.47;;;22.28;25.42
51999;BME280;38015;50.924;11.598;2023-02-15T02:45:46;100782.52;;;22.25;25.44
51999;BME280;38015;50.924;11.598;2023-02-15T02:48:15;100774.69;;;22.22;25.50
51999;BME280;38015;50.924;11.598;2023-02-15T02:50:41;100772.42;;;22.14;25.60
51999;BME280;38015;50.924;11.598;2023-02-15T02:53:12;100771.91;;;22.23;25.46
51999;BME280;38015;50.924;11.598;2023-02-15T02:55:44;100775.49;;;22.21;25.50
51999;BME280;38015;50.924;11.598;2023-02-15T02:58:16;100776.92;;;22.18;25.49
51999;BME280;38015;50.924;11.598;2023-02-15T03:00:44;100778.49;;;22.04;25.79
51999;BME280;38015;50.924;11.598;2023-02-15T03:03:18;100782.15;;;22.03;25.83
51999;BME280;38015;50.924;11.598;2023-02-15T03:05:45;100781.81;;;22.15;25.59
51999;BME280;38015;50.924;11.598;2023-02-15T03:08:16;100781.13;;;22.10;25.68
51999;BME280;38015;50.924;11.598;2023-02-15T03:10:44;100787.24;;;22.18;25.53
51999;BME280;38015;50.924;11.598;2023-02-15T03:13:15;100785.68;;;22.12;25.62
51999;BME280;38015;50.924;11.598;2023-02-15T03:15:46;100787.27;;;22.14;25.56
51999;BME280;38015;50.924;11.598;2023-02-15T03:18:17;100785.75;;;22.17;25.53
51999;BME280;38015;50.924;11.598;2023-02-15T03:20:46;100784.22;;;22.13;25.61
51999;BME280;38015;50.924;11.598;2023-02-15T03:23:23;100782.80;;;22.17;25.51
51999;BME280;38015;50.924;11.598;2023-02-15T03:25:51;100783.62;;;22.09;25.64
51999;BME280;38015;50.924;11.598;2023-02-15T03:28:22;100787.26;;;22.16;25.51
51999;BME280;38015;50.924;11.598;2023-02-15T03:30:51;100787.50;;;22.09;25.63
51999;BME280;38015;50.924;11.598;2023-02-15T03:33:19;100787.46;;;22.06;25.68
51999;BME280;38015;50.924;11.598;2023-02-15T03:35:54;100783.84;;;22.12;25.56
51999;BME280;38015;50.924;11.598;2023-02-15T03:38:21;100785.10;;;22.16;25.48
51999;BME280;38015;50.924;11.598;2023-02-15T03:40:50;100783.27;;;22.18;25.42
51999;BME280;38015;50.924;11.598;2023-02-15T03:43:28;100783.42;;;22.03;25.65
51999;BME280;38015;50.924;11.598;2023-02-15T03:45:54;100783.98;;;22.09;25.56
51999;BME280;38015;50.924;11.598;2023-02-15T03:48:24;100779.58;;;22.16;25.41
51999;BME280;38015;50.924;11.598;2023-02-15T03:50:55;100782.84;;;22.13;25.46
51999;BME280;38015;50.924;11.598;2023-02-15T03:53:23;100785.25;;;21.89;25.80
51999;BME280;38015;50.924;11.598;2023-02-15T03:55:54;100782.88;;;22.10;25.51
51999;BME280;38015;50.924;11.598;2023-02-15T03:58:23;100782.78;;;22.10;25.49
51999;BME280;38015;50.924;11.598;2023-02-15T04:00:57;100782.96;;;22.21;25.32
51999;BME280;38015;50.924;11.598;2023-02-15T04:03:30;100777.23;;;22.11;25.45
51999;BME280;38015;50.924;11.598;2023-02-15T04:05:55;100773.07;;;22.08;25.47
51999;BME280;38015;50.924;11.598;2023-02-15T04:08:24;100770.99;;;22.12;25.40
51999;BME280;38015;50.924;11.598;2023-02-15T04:10:55;100769.34;;;22.08;25.49
51999;BME280;38015;50.924;11.598;2023-02-15T04:13:31;100771.37;;;22.12;25.39
51999;BME280;38015;50.924;11.598;2023-02-15T04:15:56;100773.89;;;22.14;25.36
51999;BME280;38015;50.924;11.598;2023-02-15T04:18:26;100776.48;;;22.08;25.45
51999;BME280;38015;50.924;11.598;2023-02-15T04:20:57;100775.69;;;21.93;25.68
51999;BME280;38015;50.924;11.598;2023-02-15T04:23:27;100777.48;;;22.07;25.47
51999;BME280;38015;50.924;11.598;2023-02-15T04:26:04;100776.55;;;21.96;25.58
51999;BME280;38015;50.924;11.598;2023-02-15T04:28:28;100775.14;;;22.10;25.36
51999;BME280;38015;50.924;11.598;2023-02-15T04:31:01;100771.41;;;22.07;25.41
51999;BME280;38015;50.924;11.598;2023-02-15T04:33:29;100771.70;;;22.01;25.47
51999;BME280;38015;50.924;11.598;2023-02-15T04:36:00;100767.61;;;21.97;25.54
51999;BME280;38015;50.924;11.598;2023-02-15T04:38:31;100761.61;;;22.09;25.33
51999;BME280;38015;50.924;11.598;2023-02-15T04:41:01;100758.11;;;22.01;25.48
51999;BME280;38015;50.924;11.598;2023-02-15T04:43:32;100755.48;;;22.02;25.46
51999;BME280;38015;50.924;11.598;2023-02-15T04:46:02;100754.99;;;22.12;25.30
51999;BME280;38015;50.924;11.598;2023-02-15T04:48:35;100751.67;;;22.09;25.32
51999;BME280;38015;50.924;11.598;2023-02-15T04:51:05;100753.21;;;22.10;25.31
51999;BME280;38015;50.924;11.598;2023-02-15T04:53:35;100751.03;;;22.07;25.35
51999;BME280;38015;50.924;11.598;2023-02-15T04:56:04;100747.21;;;22.04;25.36
51999;BME280;38015;50.924;11.598;2023-02-15T04:58:34;100747.69;;;22.11;25.27
51999;BME280;38015;50.924;11.598;2023-02-15T05:01:05;100744.11;;;22.11;25.23
51999;BME280;38015;50.924;11.598;2023-02-15T05:03:36;100741.81;;;22.00;25.40
51999;BME280;38015;50.924;11.598;2023-02-15T05:06:06;100739.76;;;22.06;25.33
51999;BME280;38015;50.924;11.598;2023-02-15T05:08:36;100740.75;;;22.12;25.19
51999;BME280;38015;50.924;11.598;2023-02-15T05:11:07;100736.45;;;21.99;25.41
51999;BME280;38015;50.924;11.598;2023-02-15T05:13:37;100729.49;;;22.05;25.28
51999;BME280;38015;50.924;11.598;2023-02-15T05:16:08;100727.63;;;21.97;25.36
51999;BME280;38015;50.924;11.598;2023-02-15T05:18:38;100723.21;;;21.99;25.33
51999;BME280;38015;50.924;11.598;2023-02-15T05:21:09;100722.61;;;22.03;25.23
51999;BME280;38015;50.924;11.598;2023-02-15T05:23:41;100717.62;;;22.04;25.27
51999;BME280;38015;50.924;11.598;2023-02-15T05:26:11;100716.66;;;22.02;25.27
51999;BME280;38015;50.924;11.598;2023-02-15T05:28:41;100710.24;;;22.10;25.12
51999;BME280;38015;50.924;11.598;2023-02-15T05:31:13;100709.41;;;21.89;25.44
51999;BME280;38015;50.924;11.598;2023-02-15T05:33:42;100705.74;;;22.08;25.20
51999;BME280;38015;50.924;11.598;2023-02-15T05:36:13;100700.55;;;22.10;25.13
51999;BME280;38015;50.924;11.598;2023-02-15T05:38:43;100699.68;;;22.08;25.13
51999;BME280;38015;50.924;11.598;2023-02-15T05:41:14;100700.13;;;22.06;25.16
51999;BME280;38015;50.924;11.598;2023-02-15T05:43:44;100699.64;;;22.10;25.09
51999;BME280;38015;50.924;11.598;2023-02-15T05:46:14;100697.65;;;22.05;25.15
51999;BME280;38015;50.924;11.598;2023-02-15T05:48:45;100695.23;;;22.10;25.06
51999;BME280;38015;50.924;11.598;2023-02-15T05:51:15;100700.30;;;22.01;25.23
51999;BME280;38015;50.924;11.598;2023-02-15T05:53:46;100704.87;;;22.11;25.03
51999;BME280;38015;50.924;11.598;2023-02-15T05:56:16;100708.95;;;22.06;25.13
51999;BME280;38015;50.924;11.598;2023-02-15T05:58:47;100708.57;;;22.03;25.19
51999;BME280;38015;50.924;11.598;2023-02-15T06:01:18;100709.39;;;22.11;25.05
51999;BME280;38015;50.924;11.598;2023-02-15T06:03:48;100713.57;;;22.01;25.20
51999;BME280;38015;50.924;11.598;2023-02-15T06:06:18;100713.22;;;22.07;25.11
51999;BME280;38015;50.924;11.598;2023-02-15T06:08:50;100720.50;;;22.00;25.21
51999;BME280;38015;50.924;11.598;2023-02-15T06:11:19;100721.26;;;21.84;25.45
51999;BME280;38015;50.924;11.598;2023-02-15T06:13:49;100718.67;;;22.12;24.99
51999;BME280;38015;50.924;11.598;2023-02-15T06:16:20;100723.40;;;21.91;25.30
51999;BME280;38015;50.924;11.598;2023-02-15T06:18:50;100726.07;;;22.02;25.08
51999;BME280;38015;50.924;11.598;2023-02-15T06:21:21;100727.37;;;21.85;25.38
51999;BME280;38015;50.924;11.598;2023-02-15T06:23:51;100727.52;;;22.05;25.06
51999;BME280;38015;50.924;11.598;2023-02-15T06:26:22;100725.95;;;22.06;25.03
51999;BME280;38015;50.924;11.598;2023-02-15T06:28:52;100721.79;;;22.10;24.94
51999;BME280;38015;50.924;11.598;2023-02-15T06:31:23;100724.63;;;22.06;25.00
51999;BME280;38015;50.924;11.598;2023-02-15T06:33:54;100724.28;;;22.07;24.99
51999;BME280;38015;50.924;11.598;2023-02-15T06:36:24;100725.61;;;22.05;25.04
51999;BME280;38015;50.924;11.598;2023-02-15T06:38:55;100722.98;;;22.09;24.97
51999;BME280;38015;50.924;11.598;2023-02-15T06:41:25;100726.44;;;21.93;25.22
51999;BME280;38015;50.924;11.598;2023-02-15T06:43:57;100726.33;;;22.04;25.02
51999;BME280;38015;50.924;11.598;2023-02-15T06:46:26;100727.18;;;22.02;25.03
51999;BME280;38015;50.924;11.598;2023-02-15T06:48:56;100726.86;;;21.99;25.08
51999;BME280;38015;50.924;11.598;2023-02-15T06:51:27;100725.86;;;21.94;25.16
51999;BME280;38015;50.924;11.598;2023-02-15T06:53:57;100727.13;;;22.01;25.04
51999;BME280;38015;50.924;11.598;2023-02-15T06:56:29;100724.47;;;22.01;25.01
51999;BME280;38015;50.924;11.598;2023-02-15T06:58:59;100720.86;;;22.03;24.97
51999;BME280;38015;50.924;11.598;2023-02-15T07:01:29;100720.53;;;22.01;25.00
51999;BME280;38015;50.924;11.598;2023-02-15T07:04:00;100719.71;;;22.06;24.94
51999;BME280;38015;50.924;11.598;2023-02-15T07:06:31;100717.76;;;21.89;25.18
51999;BME280;38015;50.924;11.598;2023-02-15T07:09:01;100718.20;;;21.97;25.06
51999;BME280;38015;50.924;11.598;2023-02-15T07:11:31;100712.62;;;22.02;24.95
51999;BME280;38015;50.924;11.598;2023-02-15T07:14:01;100710.41;;;22.00;25.04
51999;BME280;38015;50.924;11.598;2023-02-15T07:16:32;100710.86;;;21.97;25.07
51999;BME280;38015;50.924;11.598;2023-02-15T07:19:03;100702.71;;;22.04;24.90
51999;BME280;38015;50.924;11.598;2023-02-15T07:21:33;100697.05;;;21.98;25.03
51999;BME280;38015;50.924;11.598;2023-02-15T07:24:04;100688.72;;;22.03;24.98
51999;BME280;38015;50.924;11.598;2023-02-15T07:26:34;100683.60;;;22.00;25.00
51999;BME280;38015;50.924;11.598;2023-02-15T07:29:05;100678.61;;;21.95;25.05
51999;BME280;38015;50.924;11.598;2023-02-15T07:31:35;100678.01;;;22.03;24.94
51999;BME280;38015;50.924;11.598;2023-02-15T07:34:06;100672.12;;;21.97;25.02
51999;BME280;38015;50.924;11.598;2023-02-15T07:36:36;100671.38;;;21.94;25.03
51999;BME280;38015;50.924;11.598;2023-02-15T07:39:07;100668.52;;;22.07;24.86
51999;BME280;38015;50.924;11.598;2023-02-15T07:41:37;100667.38;;;22.04;24.85
51999;BME280;38015;50.924;11.598;2023-02-15T07:44:12;100667.07;;;21.96;24.94
51999;BME280;38015;50.924;11.598;2023-02-15T07:46:39;100668.14;;;21.81;25.11
51999;BME280;38015;50.924;11.598;2023-02-15T07:49:09;100666.01;;;21.90;24.94
51999;BME280;38015;50.924;11.598;2023-02-15T07:51:41;100661.50;;;22.00;24.80
51999;BME280;38015;50.924;11.598;2023-02-15T07:54:10;100658.56;;;22.01;24.77
51999;BME280;38015;50.924;11.598;2023-02-15T07:56:41;100656.83;;;21.76;25.13
51999;BME280;38015;50.924;11.598;2023-02-15T07:59:11;100657.21;;;22.03;24.71
51999;BME280;38015;50.924;11.598;2023-02-15T08:01:42;100655.52;;;22.03;24.68
51999;BME280;38015;50.924;11.598;2023-02-15T08:04:12;100655.24;;;22.01;24.70
51999;BME280;38015;50.924;11.598;2023-02-15T08:06:43;100650.89;;;22.02;24.65
51999;BME280;38015;50.924;11.598;2023-02-15T08:09:14;100648.50;;;22.04;24.65
51999;BME280;38015;50.924;11.598;2023-02-15T08:11:44;100644.68;;;21.97;24.73
51999;BME280;38015;50.924;11.598;2023-02-15T08:14:16;100643.72;;;21.92;24.77
51999;BME280;38015;50.924;11.598;2023-02-15T08:16:46;100643.09;;;21.98;24.72
51999;BME280;38015;50.924;11.598;2023-02-15T08:19:18;100646.31;;;22.04;24.57
51999;BME280;38015;50.924;11.598;2023-02-15T08:21:47;100644.91;;;21.92;24.89
51999;BME280;38015;50.924;11.598;2023-02-15T08:24:18;100649.76;;;21.48;25.56
51999;BME280;38015;50.924;11.598;2023-02-15T08:26:48;100649.99;;;21.70;24.87
51999;BME280;38015;50.924;11.598;2023-02-15T08:29:19;100648.24;;;21.69;24.87
51999;BME280;38015;50.924;11.598;2023-02-15T08:31:47;100651.49;;;21.97;24.49
51999;BME280;38015;50.924;11.598;2023-02-15T08:34:18;100650.68;;;21.97;24.41
51999;BME280;38015;50.924;11.598;2023-02-15T08:36:48;100651.35;;;22.05;23.64
51999;BME280;38015;50.924;11.598;2023-02-15T08:39:18;100648.11;;;21.76;24.64
51999;BME280;38015;50.924;11.598;2023-02-15T08:41:50;100641.61;;;21.69;24.63
51999;BME280;38015;50.924;11.598;2023-02-15T08:44:20;100638.91;;;21.65;24.78
51999;BME280;38015;50.924;11.598;2023-02-15T08:46:50;100637.32;;;21.54;24.68
51999;BME280;38015;50.924;11.598;2023-02-15T08:49:21;100633.26;;;21.85;24.15
51999;BME280;38015;50.924;11.598;2023-02-15T08:51:50;100634.20;;;21.97;23.98
51999;BME280;38015;50.924;11.598;2023-02-15T08:54:21;100633.46;;;21.99;23.96
51999;BME280;38015;50.924;11.598;2023-02-15T08:56:51;100634.29;;;21.86;24.02
51999;BME280;38015;50.924;11.598;2023-02-15T08:59:23;100635.64;;;21.91;23.97
51999;BME280;38015;50.924;11.598;2023-02-15T09:01:53;100635.47;;;21.89;23.92
51999;BME280;38015;50.924;11.598;2023-02-15T09:04:23;100635.13;;;21.86;23.94
51999;BME280;38015;50.924;11.598;2023-02-15T09:06:53;100631.56;;;21.88;23.80
51999;BME280;38015;50.924;11.598;2023-02-15T09:09:23;100624.85;;;21.92;23.71
51999;BME280;38015;50.924;11.598;2023-02-15T09:11:54;100625.03;;;22.20;23.26
51999;BME280;38015;50.924;11.598;2023-02-15T09:14:25;100622.66;;;22.13;23.49
51999;BME280;38015;50.924;11.598;2023-02-15T09:16:56;100625.75;;;22.09;23.58
51999;BME280;38015;50.924;11.598;2023-02-15T09:19:25;100622.88;;;22.14;23.64
51999;BME280;38015;50.924;11.598;2023-02-15T09:21:56;100621.84;;;22.38;23.29
51999;BME280;38015;50.924;11.598;2023-02-15T09:24:26;100617.47;;;22.39;23.32
51999;BME280;38015;50.924;11.598;2023-02-15T09:26:57;100614.73;;;22.35;23.42
51999;BME280;38015;50.924;11.598;2023-02-15T09:29:27;100614.97;;;22.43;23.44
51999;BME280;38015;50.924;11.598;2023-02-15T09:31:57;100616.22;;;22.45;23.70
51999;BME280;38015;50.924;11.598;2023-02-15T09:34:28;100616.52;;;22.30;24.23
51999;BME280;38015;50.924;11.598;2023-02-15T09:36:58;100618.47;;;22.22;24.54
51999;BME280;38015;50.924;11.598;2023-02-15T09:39:29;100618.17;;;22.20;24.71
51999;BME280;38015;50.924;11.598;2023-02-15T09:42:09;100616.16;;;22.34;24.71
51999;BME280;38015;50.924;11.598;2023-02-15T09:44:42;100616.19;;;22.43;24.68
51999;BME280;38015;50.924;11.598;2023-02-15T09:47:14;100619.28;;;22.30;24.94
51999;BME280;38015;50.924;11.598;2023-02-15T09:49:38;100622.12;;;22.56;24.62
51999;BME280;38015;50.924;11.598;2023-02-15T09:52:17;100618.23;;;22.71;24.45
51999;BME280;38015;50.924;11.598;2023-02-15T09:54:43;100618.55;;;22.76;24.44
51999;BME280;38015;50.924;11.598;2023-02-15T09:57:09;100616.78;;;22.73;24.51
51999;BME280;38015;50.924;11.598;2023-02-15T09:59:37;100612.82;;;22.84;24.39
51999;BME280;38015;50.924;11.598;2023-02-15T10:02:16;100609.78;;;22.86;24.51
51999;BME280;38015;50.924;11.598;2023-02-15T10:04:47;100606.26;;;22.75;24.74
51999;BME280;38015;50.924;11.598;2023-02-15T10:07:13;100601.23;;;22.88;24.62
51999;BME280;38015;50.924;11.598;2023-02-15T10:09:47;100601.43;;;22.75;25.03
51999;BME280;38015;50.924;11.598;2023-02-15T10:12:17;100603.48;;;22.68;25.23
51999;BME280;38015;50.924;11.598;2023-02-15T10:14:50;100604.49;;;22.46;25.68
51999;BME280;38015;50.924;11.598;2023-02-15T10:17:21;100603.36;;;22.46;25.81
51999;BME280;38015;50.924;11.598;2023-02-15T10:19:44;100600.23;;;22.27;26.18
51999;BME280;38015;50.924;11.598;2023-02-15T10:22:19;100602.79;;;22.45;25.98
51999;BME280;38015;50.924;11.598;2023-02-15T10:24:49;100600.50;;;22.38;26.12
51999;BME280;38015;50.924;11.598;2023-02-15T10:27:12;100603.95;;;22.61;25.86
51999;BME280;38015;50.924;11.598;2023-02-15T10:29:42;100602.68;;;22.58;25.91
51999;BME280;38015;50.924;11.598;2023-02-15T10:32:18;100601.18;;;22.59;26.02
51999;BME280;38015;50.924;11.598;2023-02-15T10:34:45;100596.29;;;22.44;26.40
51999;BME280;38015;50.924;11.598;2023-02-15T10:39:48;100592.80;;;22.48;26.56
51999;BME280;38015;50.924;11.598;2023-02-15T10:42:18;100586.93;;;22.68;26.00
51999;BME280;38015;50.924;11.598;2023-02-15T10:44:54;100585.32;;;22.82;25.64
51999;BME280;38015;50.924;11.598;2023-02-15T10:47:25;100584.96;;;22.92;25.42
51999;BME280;38015;50.924;11.598;2023-02-15T10:49:55;100587.36;;;22.87;25.47
51999;BME280;38015;50.924;11.598;2023-02-15T10:52:24;100590.12;;;22.88;25.41
51999;BME280;38015;50.924;11.598;2023-02-15T10:54:48;100592.04;;;22.93;25.27
51999;BME280;38015;50.924;11.598;2023-02-15T10:57:19;100591.07;;;22.96;25.18
51999;BME280;38015;50.924;11.598;2023-02-15T10:59:57;100584.34;;;22.94;25.16
51999;BME280;38015;50.924;11.598;2023-02-15T11:02:23;100577.08;;;22.95;25.12
51999;BME280;38015;50.924;11.598;2023-02-15T11:04:52;100571.93;;;22.90;25.30
51999;BME280;38015;50.924;11.598;2023-02-15T11:07:20;100567.67;;;22.90;25.53
51999;BME280;38015;50.924;11.598;2023-02-15T11:09:49;100565.69;;;22.99;25.50
51999;BME280;38015;50.924;11.598;2023-02-15T11:12:20;100563.04;;;22.86;25.83
51999;BME280;38015;50.924;11.598;2023-02-15T11:14:53;100555.74;;;22.89;25.83
51999;BME280;38015;50.924;11.598;2023-02-15T11:17:22;100554.95;;;22.98;25.71
51999;BME280;38015;50.924;11.598;2023-02-15T11:19:56;100549.76;;;22.95;25.84
51999;BME280;38015;50.924;11.598;2023-02-15T11:22:18;100543.17;;;22.88;25.97
51999;BME280;38015;50.924;11.598;2023-02-15T11:24:48;100534.81;;;22.92;25.94
51999;BME280;38015;50.924;11.598;2023-02-15T11:27:21;100528.63;;;22.95;25.94
51999;BME280;38015;50.924;11.598;2023-02-15T11:29:59;100528.65;;;22.94;25.93
51999;BME280;38015;50.924;11.598;2023-02-15T11:32:22;100522.06;;;22.95;25.67
51999;BME280;38015;50.924;11.598;2023-02-15T11:34:55;100524.39;;;22.86;25.63
51999;BME280;38015;50.924;11.598;2023-02-15T11:37:27;100521.33;;;22.84;25.62
51999;BME280;38015;50.924;11.598;2023-02-15T11:39:51;100513.50;;;22.80;25.56
51999;BME280;38015;50.924;11.598;2023-02-15T11:42:23;100508.53;;;22.77;25.60
51999;BME280;38015;50.924;11.598;2023-02-15T11:44:59;100500.76;;;22.73;25.57
51999;BME280;38015;50.924;11.598;2023-02-15T11:47:24;100489.65;;;22.78;25.48
51999;BME280;38015;50.924;11.598;2023-02-15T11:49:53;100485.02;;;22.64;25.71
51999;BME280;38015;50.924;11.598;2023-02-15T11:52:23;100479.17;;;22.71;25.60
51999;BME280;38015;50.924;11.598;2023-02-15T11:54:54;100480.33;;;22.61;25.74
51999;BME280;38015;50.924;11.598;2023-02-15T11:57:31;100473.30;;;22.73;25.55
51999;BME280;38015;50.924;11.598;2023-02-15T12:00:01;100470.23;;;22.76;25.48
51999;BME280;38015;50.924;11.598;2023-02-15T12:02:25;100468.16;;;22.72;25.53
51999;BME280;38015;50.924;11.598;2023-02-15T12:04:58;100467.80;;;22.73;25.48
51999;BME280;38015;50.924;11.598;2023-02-15T12:07:30;100466.74;;;22.71;25.50
51999;BME280;38015;50.924;11.598;2023-02-15T12:12:29;100463.56;;;22.71;25.44
51999;BME280;38015;50.924;11.598;2023-02-15T12:14:59;100460.72;;;22.70;25.45
51999;BME280;38015;50.924;11.598;2023-02-15T12:17:30;100462.42;;;22.71;25.38
51999;BME280;38015;50.924;11.598;2023-02-15T12:20:01;100464.37;;;22.57;25.60
51999;BME280;38015;50.924;11.598;2023-02-15T12:22:31;100462.19;;;22.65;25.48
51999;BME280;38015;50.924;11.598;2023-02-15T12:25:02;100457.84;;;22.68;25.42
51999;BME280;38015;50.924;11.598;2023-02-15T12:27:33;100455.84;;;22.64;25.47
51999;BME280;38015;50.924;11.598;2023-02-15T12:30:05;100455.33;;;22.66;25.42
51999;BME280;38015;50.924;11.598;2023-02-15T12:32:34;100455.31;;;22.64;25.44
51999;BME280;38015;50.924;11.598;2023-02-15T12:35:07;100451.58;;;22.63;25.43
51999;BME280;38015;50.924;11.598;2023-02-15T12:37:31;100448.62;;;22.65;25.38
51999;BME280;38015;50.924;11.598;2023-02-15T12:42:41;100439.46;;;22.68;25.31
51999;BME280;38015;50.924;11.598;2023-02-15T12:47:34;100437.21;;;22.64;25.33
51999;BME280;38015;50.924;11.598;2023-02-15T12:50:11;100430.94;;;22.69;25.26
51999;BME280;38015;50.924;11.598;2023-02-15T12:52:36;100424.13;;;22.65;25.28
51999;BME280;38015;50.924;11.598;2023-02-15T12:55:17;100425.99;;;22.63;25.31
51999;BME280;38015;50.924;11.598;2023-02-15T12:57:35;100423.40;;;22.64;25.30
51999;BME280;38015;50.924;11.598;2023-02-15T13:02:43;100414.86;;;22.62;25.27
51999;BME280;38015;50.924;11.598;2023-02-15T13:05:16;100411.72;;;22.66;25.20
51999;BME280;38015;50.924;11.598;2023-02-15T13:07:37;100411.77;;;22.58;25.31
51999;BME280;38015;50.924;11.598;2023-02-15T13:12:39;100405.20;;;22.57;25.27